createdAt,value
2022-08-17T00:02:26.314Z,7.93
2022-08-17T00:04:55.607Z,5.95
2022-08-17T00:07:22.999Z,6.85
2022-08-17T00:09:49.910Z,6.20
2022-08-17T00:12:40.910Z,4.97
2022-08-17T00:15:06.032Z,6.90
2022-08-17T00:20:05.270Z,7.38
2022-08-17T00:22:36.440Z,5.50
2022-08-17T00:25:10.336Z,11.02
2022-08-17T00:27:37.204Z,4.97
2022-08-17T00:30:08.755Z,5.10
2022-08-17T00:33:13.956Z,5.95
2022-08-17T00:35:32.553Z,4.90
2022-08-17T00:37:59.407Z,4.53
2022-08-17T00:40:26.521Z,4.85
2022-08-17T00:43:15.228Z,6.60
2022-08-17T00:45:43.503Z,5.82
2022-08-17T00:48:11.459Z,5.90
2022-08-17T00:51:01.801Z,6.10
2022-08-17T00:53:31.518Z,4.93
2022-08-17T00:56:04.674Z,6.57
2022-08-17T00:58:35.428Z,9.35
2022-08-17T01:01:05.617Z,7.50
2022-08-17T01:03:33.538Z,6.00
2022-08-17T01:06:02.974Z,4.40
2022-08-17T01:08:31.191Z,7.53
2022-08-17T01:11:04.144Z,5.13
2022-08-17T01:13:43.658Z,6.57
2022-08-17T01:16:23.159Z,6.78
2022-08-17T01:18:54.363Z,6.15
2022-08-17T01:21:30.606Z,5.97
2022-08-17T01:23:58.164Z,7.18
2022-08-17T01:26:25.172Z,8.18
2022-08-17T01:28:55.454Z,9.13
2022-08-17T01:31:25.168Z,7.20
2022-08-17T01:33:52.202Z,7.82
2022-08-17T01:36:19.286Z,5.80
2022-08-17T01:38:46.264Z,5.72
2022-08-17T01:41:16.448Z,6.80
2022-08-17T01:43:59.601Z,7.25
2022-08-17T01:48:57.564Z,7.88
2022-08-17T01:51:32.923Z,6.85
2022-08-17T01:54:05.479Z,9.32
2022-08-17T01:56:34.608Z,6.72
2022-08-17T01:59:01.514Z,7.47
2022-08-17T02:01:31.382Z,7.43
2022-08-17T02:04:00.853Z,9.68
2022-08-17T02:06:44.994Z,8.45
2022-08-17T02:09:25.852Z,7.13
2022-08-17T02:11:54.830Z,6.35
2022-08-17T02:14:23.684Z,7.03
2022-08-17T02:16:50.738Z,8.07
2022-08-17T02:19:18.009Z,7.63
2022-08-17T02:21:49.477Z,9.95
2022-08-17T02:24:59.843Z,9.55
2022-08-17T02:27:09.454Z,5.90
2022-08-17T02:29:37.240Z,10.38
2022-08-17T02:32:05.053Z,7.40
2022-08-17T02:34:32.770Z,5.88
2022-08-17T02:36:59.655Z,9.55
2022-08-17T02:39:26.568Z,6.05
2022-08-17T02:42:01.706Z,6.18
2022-08-17T02:44:35.464Z,6.88
2022-08-17T02:47:08.926Z,7.13
2022-08-17T02:49:36.266Z,9.07
2022-08-17T02:52:06.646Z,6.57
2022-08-17T02:54:41.368Z,6.57
2022-08-17T02:57:10.325Z,7.30
2022-08-17T02:59:38.447Z,9.05
2022-08-17T03:02:08.358Z,6.10
2022-08-17T03:04:35.581Z,8.70
2022-08-17T03:07:03.639Z,7.25
2022-08-17T03:09:31.512Z,6.43
2022-08-17T03:12:10.170Z,7.15
2022-08-17T03:14:41.421Z,5.35
2022-08-17T03:17:15.195Z,9.07
2022-08-17T03:19:44.619Z,5.90
2022-08-17T03:22:36.128Z,7.25
2022-08-17T03:24:58.848Z,6.65
2022-08-17T03:27:25.784Z,6.93
2022-08-17T03:29:53.245Z,5.88
2022-08-17T03:32:20.844Z,12.93
2022-08-17T03:34:48.204Z,8.38
2022-08-17T03:37:15.089Z,6.95
2022-08-17T03:39:42.410Z,8.85
2022-08-17T03:42:31.910Z,6.95
2022-08-17T03:45:00.894Z,7.43
2022-08-17T03:47:46.830Z,8.35
2022-08-17T03:50:33.592Z,8.23
2022-08-17T03:53:21.788Z,6.07
2022-08-17T03:56:07.323Z,6.20
2022-08-17T03:58:34.210Z,8.20
2022-08-17T04:01:01.402Z,9.27
2022-08-17T04:03:28.716Z,7.43
2022-08-17T04:05:55.613Z,6.88
2022-08-17T04:08:22.462Z,7.47
2022-08-17T04:10:49.546Z,9.05
2022-08-17T04:13:16.546Z,5.18
2022-08-17T04:15:52.046Z,7.13
2022-08-17T04:18:19.702Z,12.18
2022-08-17T04:20:46.899Z,4.97
2022-08-17T04:23:17.111Z,10.75
2022-08-17T04:25:48.235Z,9.77
2022-08-17T04:28:16.776Z,7.82
2022-08-17T04:30:45.323Z,4.93
2022-08-17T04:33:21.898Z,7.57
2022-08-17T04:35:51.964Z,7.93
2022-08-17T04:38:24.504Z,7.28
2022-08-17T04:41:10.657Z,7.68
2022-08-17T04:43:40.077Z,7.85
2022-08-17T04:46:34.805Z,8.00
2022-08-17T04:49:05.715Z,8.27
2022-08-17T04:51:38.845Z,6.38
2022-08-17T04:54:18.389Z,9.70
2022-08-17T04:59:21.897Z,8.52
2022-08-17T05:01:51.259Z,7.95
2022-08-17T05:04:33.990Z,8.00
2022-08-17T05:07:02.365Z,6.63
2022-08-17T05:09:29.297Z,7.78
2022-08-17T05:11:56.327Z,5.30
2022-08-17T05:14:27.268Z,6.20
2022-08-17T05:17:01.166Z,6.57
2022-08-17T05:19:28.961Z,10.13
2022-08-17T05:21:55.801Z,11.27
2022-08-17T05:24:40.753Z,6.40
2022-08-17T05:27:09.483Z,5.88
2022-08-17T05:29:36.953Z,6.35
2022-08-17T05:32:38.922Z,5.10
2022-08-17T05:35:00.515Z,7.32
2022-08-17T05:37:28.137Z,6.68
2022-08-17T05:39:55.112Z,8.63
2022-08-17T05:42:22.479Z,7.93
2022-08-17T05:44:49.404Z,8.18
2022-08-17T05:47:17.432Z,6.68
2022-08-17T05:49:44.375Z,9.15
2022-08-17T05:52:26.381Z,9.52
2022-08-17T05:55:18.932Z,5.88
2022-08-17T05:58:04.151Z,8.05
2022-08-17T06:00:56.086Z,8.18
2022-08-17T06:03:51.826Z,9.55
2022-08-17T06:06:31.744Z,12.40
2022-08-17T06:08:58.620Z,49.28
2022-08-17T06:11:39.851Z,8.38
2022-08-17T06:14:43.987Z,6.75
2022-08-17T06:17:14.614Z,10.13
2022-08-17T06:19:52.474Z,14.32
2022-08-17T06:22:21.398Z,8.10
2022-08-17T06:24:56.962Z,7.50
2022-08-17T06:27:42.976Z,8.30
2022-08-17T06:30:13.074Z,11.32
2022-08-17T06:32:45.873Z,8.45
2022-08-17T06:38:04.518Z,13.00
2022-08-17T06:40:50.544Z,12.13
2022-08-17T06:44:09.995Z,7.15
2022-08-17T06:46:42.915Z,9.90
2022-08-17T06:51:54.410Z,10.52
2022-08-17T06:54:33.492Z,10.80
2022-08-17T06:57:19.185Z,33.60
2022-08-17T07:00:15.084Z,8.20
2022-08-17T07:03:06.370Z,9.73
2022-08-17T07:05:43.042Z,8.57
2022-08-17T07:08:35.184Z,5.95
2022-08-17T07:11:06.796Z,7.90
2022-08-17T07:13:54.554Z,8.57
2022-08-17T07:16:33.779Z,9.20
2022-08-17T07:19:00.624Z,9.38
2022-08-17T07:21:46.117Z,6.25
2022-08-17T07:24:37.301Z,8.82
2022-08-17T07:27:06.497Z,6.70
2022-08-17T07:29:57.848Z,10.85
2022-08-17T07:32:32.689Z,8.95
2022-08-17T07:35:37.573Z,9.13
2022-08-17T07:38:25.626Z,10.57
2022-08-17T07:41:03.010Z,10.63
2022-08-17T07:43:33.086Z,9.40
2022-08-17T07:46:30.945Z,7.18
2022-08-17T07:49:17.777Z,9.00
2022-08-17T07:51:45.638Z,12.18
2022-08-17T07:54:15.488Z,10.10
2022-08-17T07:56:47.084Z,7.82
2022-08-17T07:59:15.690Z,10.30
2022-08-17T08:02:10.224Z,9.85
2022-08-17T08:05:00.097Z,12.05
2022-08-17T08:07:38.494Z,12.55
2022-08-17T08:10:24.960Z,10.68
2022-08-17T08:13:15.590Z,8.95
2022-08-17T08:15:54.438Z,12.65
2022-08-17T08:18:53.354Z,10.32
2022-08-17T08:21:14.045Z,16.17
2022-08-17T08:24:00.622Z,14.68
2022-08-17T08:26:33.357Z,15.75
2022-08-17T08:29:12.614Z,16.77
2022-08-17T08:32:04.049Z,17.08
2022-08-17T08:35:01.716Z,17.98
2022-08-17T08:37:51.532Z,16.65
2022-08-17T08:40:45.102Z,17.05
2022-08-17T08:43:26.597Z,13.25
2022-08-17T08:46:19.745Z,17.02
2022-08-17T08:51:55.810Z,14.93
2022-08-17T08:54:45.856Z,13.05
2022-08-17T08:57:34.177Z,14.23
2022-08-17T09:00:35.814Z,19.85
2022-08-17T09:03:51.872Z,13.35
2022-08-17T09:06:33.579Z,15.57
2022-08-17T09:09:09.092Z,11.90
2022-08-17T09:12:01.786Z,21.85
2022-08-17T09:14:58.001Z,13.77
2022-08-17T09:17:39.050Z,18.88
2022-08-17T09:20:27.418Z,14.93
2022-08-17T09:23:32.588Z,20.95
2022-08-17T09:26:11.838Z,16.83
2022-08-17T09:28:44.599Z,16.27
2022-08-17T09:33:46.417Z,17.27
2022-08-17T09:36:23.127Z,19.42
2022-08-17T09:39:07.301Z,11.75
2022-08-17T09:41:49.191Z,21.48
2022-08-17T09:44:31.154Z,17.00
2022-08-17T09:47:14.018Z,12.73
2022-08-17T09:49:49.494Z,14.85
2022-08-17T09:52:26.380Z,15.55
2022-08-17T09:54:55.878Z,13.57
2022-08-17T09:57:31.738Z,13.45
2022-08-17T10:00:17.014Z,13.32
2022-08-17T10:03:29.103Z,16.10
2022-08-17T10:06:00.373Z,11.57
2022-08-17T10:08:44.081Z,13.88
2022-08-17T10:11:45.597Z,17.00
2022-08-17T10:14:36.802Z,11.27
2022-08-17T10:17:25.373Z,13.07
2022-08-17T10:20:34.014Z,11.60
2022-08-17T10:23:29.223Z,14.35
2022-08-17T10:26:13.780Z,14.32
2022-08-17T10:28:47.855Z,16.30
2022-08-17T10:31:40.038Z,13.85
2022-08-17T10:34:47.964Z,18.30
2022-08-17T10:38:02.245Z,17.27
2022-08-17T10:40:38.811Z,17.08
2022-08-17T10:43:05.668Z,13.35
2022-08-17T10:45:49.480Z,18.05
2022-08-17T10:48:38.411Z,15.13
2022-08-17T10:51:29.844Z,16.13
2022-08-17T10:53:58.267Z,19.73
2022-08-17T10:56:41.208Z,16.92
2022-08-17T10:59:08.876Z,17.85
2022-08-17T11:01:38.477Z,21.60
2022-08-17T11:04:47.842Z,16.33
2022-08-17T11:07:46.842Z,15.82
2022-08-17T11:10:38.529Z,17.02
2022-08-17T11:13:28.593Z,15.38
2022-08-17T11:16:32.691Z,19.52
2022-08-17T11:19:27.716Z,18.52
2022-08-17T11:22:38.397Z,16.65
2022-08-17T11:25:31.564Z,18.05
2022-08-17T11:30:59.429Z,17.88
2022-08-17T11:33:30.411Z,15.63
2022-08-17T11:36:40.462Z,14.80
2022-08-17T11:39:35.836Z,14.65
2022-08-17T11:42:11.985Z,17.90
2022-08-17T11:44:56.511Z,16.83
2022-08-17T11:48:27.925Z,14.07
2022-08-17T11:51:25.635Z,14.70
2022-08-17T11:54:21.399Z,14.82
2022-08-17T11:56:47.763Z,17.77
2022-08-17T11:59:33.053Z,15.98
2022-08-17T12:02:01.636Z,16.15
2022-08-17T12:04:30.076Z,15.60
2022-08-17T12:07:09.054Z,14.55
2022-08-17T12:09:41.663Z,17.02
2022-08-17T12:12:22.885Z,14.10
2022-08-17T12:15:11.529Z,15.38
2022-08-17T12:17:42.673Z,15.70
2022-08-17T12:20:24.168Z,15.18
2022-08-17T12:23:09.221Z,15.13
2022-08-17T12:26:01.078Z,17.33
2022-08-17T12:28:32.432Z,17.63
2022-08-17T12:31:27.259Z,14.00
2022-08-17T12:33:54.172Z,21.05
2022-08-17T12:36:24.823Z,15.02
2022-08-17T12:39:13.660Z,15.77
2022-08-17T12:41:44.958Z,15.05
2022-08-17T12:44:12.311Z,14.40
2022-08-17T12:46:50.693Z,15.02
2022-08-17T12:49:26.513Z,14.82
2022-08-17T12:52:02.707Z,18.10
2022-08-17T12:54:44.476Z,14.27
2022-08-17T12:57:35.354Z,15.23
2022-08-17T13:00:12.463Z,16.38
2022-08-17T13:02:51.510Z,15.60
2022-08-17T13:05:36.323Z,15.98
2022-08-17T13:08:17.526Z,16.42
2022-08-17T13:10:53.756Z,13.25
2022-08-17T13:13:25.220Z,15.02
2022-08-17T13:16:04.516Z,13.30
2022-08-17T13:18:48.453Z,17.98
2022-08-17T13:21:30.524Z,15.98
2022-08-17T13:24:00.380Z,19.13
2022-08-17T13:26:39.376Z,14.32
2022-08-17T13:29:33.254Z,15.10
2022-08-17T13:32:09.060Z,19.45
2022-08-17T13:35:14.931Z,16.83
2022-08-17T13:37:48.265Z,17.63
2022-08-17T13:40:15.158Z,14.10
2022-08-17T13:42:52.433Z,15.45
2022-08-17T13:45:36.514Z,13.20
2022-08-17T13:48:25.548Z,16.10
2022-08-17T13:50:52.654Z,12.70
2022-08-17T13:53:27.573Z,15.75
2022-08-17T13:55:56.480Z,13.27
2022-08-17T13:58:32.440Z,14.80
2022-08-17T14:01:19.267Z,15.73
2022-08-17T14:03:46.139Z,14.95
2022-08-17T14:06:22.145Z,14.25
2022-08-17T14:09:05.312Z,12.90
2022-08-17T14:11:32.250Z,17.15
2022-08-17T14:13:59.131Z,15.40
2022-08-17T14:16:26.613Z,14.45
2022-08-17T14:18:56.155Z,12.60
2022-08-17T14:21:24.235Z,13.23
2022-08-17T14:23:54.570Z,14.80
2022-08-17T14:26:26.018Z,15.15
2022-08-17T14:28:56.247Z,15.43
2022-08-17T14:31:23.858Z,14.90
2022-08-17T14:33:51.528Z,11.82
2022-08-17T14:36:18.410Z,13.48
2022-08-17T14:38:45.342Z,15.30
2022-08-17T14:41:12.389Z,14.32
2022-08-17T14:43:39.942Z,14.38
2022-08-17T14:46:06.952Z,12.85
2022-08-17T14:48:35.846Z,12.23
2022-08-17T14:51:04.247Z,13.50
2022-08-17T14:53:31.209Z,12.70
2022-08-17T14:55:58.169Z,15.85
2022-08-17T14:58:26.061Z,13.07
2022-08-17T15:00:53.458Z,13.48
2022-08-17T15:03:20.411Z,16.15
2022-08-17T15:05:47.408Z,14.23
2022-08-17T15:08:16.620Z,12.50
2022-08-17T15:10:44.907Z,16.83
2022-08-17T15:13:24.416Z,15.95
2022-08-17T15:15:51.957Z,12.68
2022-08-17T15:18:18.819Z,15.85
2022-08-17T15:20:49.039Z,17.00
2022-08-17T15:23:19.066Z,11.70
2022-08-17T15:25:48.060Z,13.02
2022-08-17T15:28:15.473Z,11.98
2022-08-17T15:30:44.797Z,14.90
2022-08-17T15:33:16.693Z,12.40
2022-08-17T15:35:44.185Z,11.87
2022-08-17T15:38:13.062Z,12.80
2022-08-17T15:40:46.281Z,11.32
2022-08-17T15:43:16.681Z,12.05
2022-08-17T15:45:45.104Z,10.63
2022-08-17T15:48:41.820Z,10.85
2022-08-17T15:51:14.990Z,12.55
2022-08-17T15:53:44.212Z,10.05
2022-08-17T15:56:11.371Z,11.50
2022-08-17T15:58:38.606Z,13.20
2022-08-17T16:01:14.985Z,10.57
2022-08-17T16:04:04.292Z,10.63
2022-08-17T16:06:32.817Z,16.17
2022-08-17T16:09:00.485Z,10.52
2022-08-17T16:11:27.324Z,9.20
2022-08-17T16:13:54.807Z,9.18
2022-08-17T16:16:23.650Z,12.38
2022-08-17T16:18:53.562Z,12.63
2022-08-17T16:21:29.542Z,11.63
2022-08-17T16:24:01.336Z,10.88
2022-08-17T16:26:29.834Z,9.30
2022-08-17T16:28:58.774Z,11.13
2022-08-17T16:31:26.122Z,9.32
2022-08-17T16:34:16.327Z,9.38
2022-08-17T16:36:41.577Z,8.50
2022-08-17T16:39:24.786Z,8.77
2022-08-17T16:41:51.741Z,11.75
2022-08-17T16:44:22.587Z,9.00
2022-08-17T16:46:50.312Z,10.95
2022-08-17T16:49:36.974Z,10.43
2022-08-17T16:52:07.650Z,10.15
2022-08-17T16:54:37.085Z,9.95
2022-08-17T16:57:05.293Z,8.98
2022-08-17T16:59:40.831Z,13.30
2022-08-17T17:02:14.342Z,10.45
2022-08-17T17:04:56.218Z,10.10
2022-08-17T17:07:33.868Z,9.80
2022-08-17T17:10:17.009Z,10.90
2022-08-17T17:13:02.247Z,11.68
2022-08-17T17:15:45.322Z,10.57
2022-08-17T17:18:14.869Z,10.15
2022-08-17T17:20:56.973Z,13.23
2022-08-17T17:23:49.848Z,13.63
2022-08-17T17:26:37.969Z,10.70
2022-08-17T17:29:14.371Z,10.48
2022-08-17T17:32:01.514Z,8.32
2022-08-17T17:34:32.614Z,7.85
2022-08-17T17:37:05.733Z,8.85
2022-08-17T17:39:43.876Z,10.95
2022-08-17T17:42:23.816Z,11.50
2022-08-17T17:45:07.743Z,9.18
2022-08-17T17:47:36.300Z,9.43
2022-08-17T17:50:05.805Z,9.50
2022-08-17T17:52:32.669Z,8.60
2022-08-17T17:55:23.074Z,11.63
2022-08-17T17:58:11.710Z,9.57
2022-08-17T18:00:53.248Z,9.57
2022-08-17T18:03:35.995Z,11.77
2022-08-17T18:06:21.336Z,13.50
2022-08-17T18:09:20.130Z,10.00
2022-08-17T18:12:08.723Z,10.60
2022-08-17T18:14:54.860Z,9.50
2022-08-17T18:17:22.268Z,10.38
2022-08-17T18:19:49.502Z,11.30
2022-08-17T18:22:20.190Z,9.25
2022-08-17T18:24:55.925Z,10.35
2022-08-17T18:27:32.240Z,12.43
2022-08-17T18:30:05.863Z,9.70
2022-08-17T18:32:43.721Z,9.43
2022-08-17T18:35:16.570Z,10.85
2022-08-17T18:40:19.159Z,9.52
2022-08-17T18:42:55.797Z,9.73
2022-08-17T18:45:40.809Z,10.68
2022-08-17T18:48:45.191Z,10.52
2022-08-17T18:51:41.418Z,14.25
2022-08-17T18:54:24.086Z,11.50
2022-08-17T18:57:12.362Z,11.90
2022-08-17T18:59:49.950Z,10.23
2022-08-17T19:02:38.697Z,13.13
2022-08-17T19:05:29.263Z,16.95
2022-08-17T19:08:29.422Z,13.65
2022-08-17T19:11:01.217Z,16.38
2022-08-17T19:13:30.763Z,12.10
2022-08-17T19:16:14.360Z,16.35
2022-08-17T19:18:58.256Z,14.90
2022-08-17T19:24:11.661Z,16.23
2022-08-17T19:27:06.436Z,12.55
2022-08-17T19:29:44.457Z,15.30
2022-08-17T19:32:15.411Z,14.43
2022-08-17T19:34:44.514Z,12.00
2022-08-17T19:37:39.002Z,11.52
2022-08-17T19:40:51.727Z,13.10
2022-08-17T19:43:18.974Z,15.45
2022-08-17T19:46:01.726Z,15.15
2022-08-17T19:48:53.388Z,14.73
2022-08-17T19:51:50.324Z,29.67
2022-08-17T19:54:40.096Z,30.63
2022-08-17T19:57:37.018Z,28.05
2022-08-17T20:00:12.860Z,24.02
2022-08-17T20:03:16.107Z,17.27
2022-08-17T20:08:57.544Z,14.77
2022-08-17T20:11:38.233Z,14.40
2022-08-17T20:14:13.649Z,12.13
2022-08-17T20:16:40.716Z,18.60
2022-08-17T20:19:10.060Z,18.23
2022-08-17T20:21:52.429Z,16.60
2022-08-17T20:24:45.724Z,14.00
2022-08-17T20:30:00.644Z,21.17
2022-08-17T20:32:31.158Z,16.15
2022-08-17T20:35:34.552Z,16.63
2022-08-17T20:38:08.779Z,18.83
2022-08-17T20:41:00.734Z,19.13
2022-08-17T20:43:33.800Z,17.67
2022-08-17T20:46:09.480Z,18.80
2022-08-17T20:48:41.389Z,16.60
2022-08-17T20:51:27.373Z,20.25
2022-08-17T20:53:54.163Z,16.10
2022-08-17T20:56:49.302Z,15.35
2022-08-17T20:59:30.474Z,32.67
2022-08-17T21:02:12.374Z,14.77
2022-08-17T21:04:52.390Z,16.42
2022-08-17T21:07:42.895Z,14.98
2022-08-17T21:10:25.677Z,14.40
2022-08-17T21:13:04.652Z,13.93
2022-08-17T21:15:48.559Z,13.68
2022-08-17T21:19:06.920Z,16.27
2022-08-17T21:22:00.512Z,13.20
2022-08-17T21:24:33.380Z,15.93
2022-08-17T21:29:31.936Z,11.95
2022-08-17T21:43:48.826Z,15.05
2022-08-17T21:46:29.013Z,15.57
2022-08-17T21:49:13.894Z,14.75
2022-08-17T21:51:50.418Z,12.27
2022-08-17T21:54:29.941Z,14.70
2022-08-17T21:59:44.718Z,15.25
2022-08-17T22:02:41.832Z,15.63
2022-08-17T22:05:12.165Z,14.25
2022-08-17T22:07:47.642Z,14.48
2022-08-17T22:10:30.976Z,13.52
2022-08-17T22:13:16.640Z,14.18
2022-08-17T22:15:52.236Z,15.63
2022-08-17T22:18:33.147Z,15.25
2022-08-17T22:21:07.196Z,16.02
2022-08-17T22:24:01.077Z,13.60
2022-08-17T22:27:09.822Z,14.75
2022-08-17T22:32:07.137Z,14.27
2022-08-17T22:34:34.033Z,14.43
2022-08-17T22:37:27.277Z,14.73
2022-08-17T22:40:01.098Z,15.70
2022-08-17T22:42:28.644Z,15.50
2022-08-17T22:44:57.495Z,15.30
2022-08-17T22:47:38.831Z,14.63
2022-08-17T22:50:22.747Z,14.65
2022-08-17T22:53:45.633Z,13.65
2022-08-17T22:56:46.868Z,16.42
2022-08-17T22:59:33.789Z,14.27
2022-08-17T23:02:20.483Z,14.20
2022-08-17T23:04:52.150Z,14.32
2022-08-17T23:07:20.653Z,13.32
2022-08-17T23:09:47.595Z,13.82
2022-08-17T23:12:26.463Z,14.40
2022-08-17T23:15:00.627Z,14.13
2022-08-17T23:17:33.873Z,15.77
2022-08-17T23:20:05.736Z,14.68
2022-08-17T23:22:33.340Z,15.02
2022-08-17T23:25:00.237Z,16.35
2022-08-17T23:27:29.282Z,14.40
2022-08-17T23:29:56.331Z,15.82
2022-08-17T23:32:24.929Z,16.63
2022-08-17T23:34:52.047Z,14.52
2022-08-17T23:37:19.869Z,20.08
2022-08-17T23:39:46.851Z,17.77
2022-08-17T23:42:21.652Z,16.58
2022-08-17T23:44:48.880Z,16.42
2022-08-17T23:47:15.870Z,16.35
2022-08-17T23:49:42.762Z,17.55
2022-08-17T23:52:14.998Z,17.77
2022-08-17T23:54:48.041Z,17.70
2022-08-17T23:57:18.287Z,17.17
2022-08-17T23:59:45.420Z,17.88
